Time;durP1;ratioP1;P1;durP2;ratioP2;P2;SDS_P1;SDS_P2;PMS_P1;PMS_P2;Temp;Humidity;BMP_temperature;BMP_pressure;BME280_temperature;BME280_humidity;BME280_pressure;Samples;Min_cycle;Max_cycle;Signal;HPM_P1;HPM_P2
2022/12/15 00:38:43;;;;;;;9.25;6.10;;;18.20;37.50;;;;;;5052289;28;20433;-42
2022/12/15 00:41:10;;;;;;;7.88;5.57;;;18.20;37.50;;;;;;5052200;28;20424;-41
2022/12/15 00:43:36;;;;;;;6.88;5.60;;;18.20;37.40;;;;;;5052102;28;20066;-42
2022/12/15 00:48:48;;;;;;;7.43;5.78;;;18.20;37.30;;;;;;5052400;28;20049;-41
2022/12/15 00:51:15;;;;;;;7.60;5.55;;;18.20;37.30;;;;;;5052095;28;20045;-41
2022/12/15 01:21:07;;;;;;;7.78;5.65;;;18.40;37.20;;;;;;5051762;28;20041;-42
2022/12/15 01:23:35;;;;;;;7.07;5.68;;;18.50;41.80;;;;;;5051125;28;20516;-41
2022/12/15 01:26:02;;;;;;;5.97;5.00;;;18.40;37.10;;;;;;5051644;28;20507;-41
2022/12/15 01:28:29;;;;;;;6.10;5.00;;;18.40;37.10;;;;;;5051760;28;20049;-41
2022/12/15 01:30:55;;;;;;;6.13;4.75;;;18.40;37.00;;;;;;5051796;28;20053;-41
2022/12/15 01:33:22;;;;;;;6.80;4.93;;;18.40;37.00;;;;;;5051198;28;20404;-41
2022/12/15 01:35:56;;;;;;;6.55;5.18;;;18.40;37.10;;;;;;5053562;28;20452;-41
2022/12/15 01:38:22;;;;;;;6.15;5.00;;;18.50;42.20;;;;;;5055174;28;20044;-41
2022/12/15 01:40:53;;;;;;;6.30;5.00;;;18.40;37.10;;;;;;5058339;28;20436;-40
2022/12/15 01:43:21;;;;;;;8.30;5.32;;;18.40;37.00;;;;;;5058131;28;20049;-41
2022/12/15 01:45:55;;;;;;;7.70;5.10;;;18.40;37.00;;;;;;5057771;28;20044;-41
2022/12/15 01:48:28;;;;;;;7.47;5.03;;;18.40;37.00;;;;;;5058478;28;20122;-41
2022/12/15 01:51:00;;;;;;;6.53;4.80;;;18.50;37.10;;;;;;5058129;28;20048;-41
2022/12/15 01:53:27;;;;;;;7.15;5.13;;;17.70;41.00;;;;;;5057891;28;20493;-41
2022/12/15 01:55:55;;;;;;;5.40;4.45;;;18.50;37.10;;;;;;5058065;28;20401;-41
2022/12/15 01:58:22;;;;;;;6.90;5.05;;;18.50;37.10;;;;;;5058327;28;20049;-41
2022/12/15 02:00:48;;;;;;;5.93;4.68;;;18.50;37.00;;;;;;5058301;28;20052;-40
2022/12/15 02:03:15;;;;;;;7.00;5.07;;;18.50;37.00;;;;;;5057820;28;20494;-40
2022/12/15 02:05:42;;;;;;;6.80;4.80;;;18.50;37.00;;;;;;5057872;28;20049;-41
2022/12/15 02:08:08;;;;;;;5.65;4.57;;;18.50;37.00;;;;;;5057811;28;20556;-40
2022/12/15 02:10:41;;;;;;;7.78;5.32;;;18.60;41.10;;;;;;5058142;28;20091;-41
2022/12/15 02:13:11;;;;;;;5.55;4.38;;;18.50;37.00;;;;;;5058078;28;20060;-41
2022/12/15 02:15:39;;;;;;;6.40;4.50;;;18.50;36.90;;;;;;5057831;28;20049;-41
2022/12/15 02:18:09;;;;;;;6.00;4.57;;;18.60;37.00;;;;;;5058148;28;20052;-42
2022/12/15 02:20:43;;;;;;;6.72;4.75;;;18.60;37.00;;;;;;5057792;28;20057;-41
2022/12/15 02:23:39;;;;;;;5.70;4.78;;;18.60;37.00;;;;;;5057514;28;20065;-40
2022/12/15 02:26:25;;;;;;;6.07;4.43;;;18.50;36.60;;;;;;5058101;28;20044;-41
2022/12/15 02:28:57;;;;;;;6.28;5.00;;;18.60;37.00;;;;;;5057982;28;20044;-41
2022/12/15 02:34:14;;;;;;;6.13;4.38;;;18.60;36.90;;;;;;5057237;28;20044;-41
2022/12/15 02:36:42;;;;;;;6.95;4.85;;;18.60;36.90;;;;;;5057352;28;20053;-41
2022/12/15 02:39:09;;;;;;;6.28;5.00;;;18.60;36.90;;;;;;5037856;28;20072;-41
2022/12/15 02:41:37;;;;;;;6.50;4.88;;;18.60;36.90;;;;;;5037706;28;20049;-41
2022/12/15 02:44:06;;;;;;;5.57;4.40;;;18.60;36.80;;;;;;5037516;28;20386;-41
2022/12/15 02:46:37;;;;;;;7.32;4.90;;;18.60;36.80;;;;;;5047115;28;20128;-42
2022/12/15 02:49:07;;;;;;;5.95;4.57;;;18.90;37.00;;;;;;5034039;28;20132;-39
2022/12/15 02:51:39;;;;;;;6.03;4.55;;;18.60;36.80;;;;;;5034741;28;20059;-41
2022/12/15 02:54:31;;;;;;;6.88;4.90;;;18.60;36.80;;;;;;5034536;28;20050;-40
2022/12/15 02:57:04;;;;;;;6.30;4.50;;;18.60;36.80;;;;;;5034775;28;20053;-42
2022/12/15 02:59:34;;;;;;;6.63;4.88;;;18.60;36.80;;;;;;5034473;28;20053;-42
2022/12/15 03:02:04;;;;;;;6.13;4.78;;;18.60;36.70;;;;;;5040074;28;20044;-41
2022/12/15 03:04:32;;;;;;;5.65;4.63;;;18.60;36.70;;;;;;5034266;28;20060;-40
2022/12/15 03:07:02;;;;;;;6.07;4.70;;;18.60;36.70;;;;;;5034130;28;20053;-41
2022/12/15 03:09:29;;;;;;;6.53;4.57;;;18.60;36.70;;;;;;5034251;28;20053;-41
2022/12/15 03:11:56;;;;;;;5.18;4.65;;;18.60;36.70;;;;;;5033952;28;20790;-42
2022/12/15 03:14:24;;;;;;;7.88;5.50;;;18.60;36.70;;;;;;5033882;28;20060;-38
2022/12/15 03:16:50;;;;;;;6.65;4.93;;;18.70;36.70;;;;;;5050119;28;20053;-41
2022/12/15 03:19:19;;;;;;;6.50;4.90;;;18.60;36.60;;;;;;5053757;28;20059;-41
2022/12/15 03:21:45;;;;;;;6.03;4.80;;;18.70;37.30;;;;;;5053928;28;20533;-41
2022/12/15 03:24:12;;;;;;;6.10;4.70;;;18.70;36.80;;;;;;5053613;28;20049;-40
2022/12/15 03:26:39;;;;;;;6.20;4.60;;;18.70;36.70;;;;;;5053805;28;20055;-41
2022/12/15 03:29:05;;;;;;;6.35;5.00;;;18.70;36.70;;;;;;5053949;28;20055;-40
2022/12/15 03:31:32;;;;;;;6.90;4.75;;;18.70;36.60;;;;;;5053548;28;20053;-41
2022/12/15 03:33:59;;;;;;;6.03;4.75;;;18.70;36.60;;;;;;5053596;28;20059;-41
2022/12/15 03:36:27;;;;;;;6.32;4.43;;;18.60;40.90;;;;;;5053062;28;20052;-41
2022/12/15 03:38:53;;;;;;;5.68;4.32;;;18.70;36.60;;;;;;5053751;28;20052;-41
2022/12/15 03:41:20;;;;;;;6.32;5.00;;;18.70;36.60;;;;;;5053487;28;20063;-42
2022/12/15 03:43:47;;;;;;;5.53;4.25;;;18.70;36.60;;;;;;5053241;28;20416;-41
2022/12/15 03:46:13;;;;;;;5.93;4.80;;;18.70;36.60;;;;;;5053350;28;20051;-41
2022/12/15 03:48:40;;;;;;;6.72;4.68;;;18.70;36.50;;;;;;5052436;28;20078;-42
2022/12/15 03:51:07;;;;;;;6.57;4.50;;;18.70;36.50;;;;;;5053179;28;20481;-41
2022/12/15 03:53:35;;;;;;;5.88;4.60;;;18.70;36.60;;;;;;5053380;28;20052;-41
2022/12/15 03:56:01;;;;;;;6.25;4.40;;;18.70;36.50;;;;;;5053307;28;20053;-41
2022/12/15 03:58:29;;;;;;;6.30;4.35;;;18.70;37.20;;;;;;5052839;28;20056;-41
2022/12/15 04:00:55;;;;;;;5.88;4.40;;;18.70;36.50;;;;;;5052900;28;20235;-42
2022/12/15 04:03:22;;;;;;;7.95;4.97;;;18.80;40.60;;;;;;5052868;28;20053;-41
2022/12/15 04:05:49;;;;;;;6.70;4.68;;;18.70;36.50;;;;;;5052803;28;20052;-42
2022/12/15 04:08:15;;;;;;;5.40;4.28;;;18.70;36.50;;;;;;5053264;28;20055;-43
2022/12/15 04:10:44;;;;;;;4.70;4.00;;;18.70;36.50;;;;;;5052830;28;20052;-41
2022/12/15 04:13:11;;;;;;;6.30;4.70;;;18.70;36.50;;;;;;5052922;28;20474;-41
2022/12/15 04:15:38;;;;;;;6.18;4.13;;;18.70;36.50;;;;;;5052927;28;20044;-42
2022/12/15 04:18:06;;;;;;;6.13;4.25;;;18.80;36.50;;;;;;5052942;28;20049;-41
2022/12/15 04:20:32;;;;;;;5.40;4.20;;;18.80;36.60;;;;;;5052695;28;20055;-41
2022/12/15 04:22:59;;;;;;;5.25;4.30;;;18.70;36.50;;;;;;5052590;28;20040;-41
2022/12/15 05:34:03;;;;;;;4.65;3.83;;;18.80;36.50;;;;;;5051739;28;20045;-41
2022/12/15 05:36:30;;;;;;;4.88;3.95;;;18.80;36.50;;;;;;5045139;28;20060;-41
2022/12/15 05:38:56;;;;;;;3.55;3.20;;;18.80;36.50;;;;;;5031823;28;20057;-41
2022/12/15 05:41:23;;;;;;;5.20;3.90;;;18.80;36.50;;;;;;5032070;28;20053;-42
2022/12/15 05:43:50;;;;;;;4.15;3.47;;;18.80;36.40;;;;;;5031315;28;20064;-41
2022/12/15 05:46:16;;;;;;;5.45;3.47;;;18.80;36.40;;;;;;5031783;28;20425;-41
2022/12/15 05:48:43;;;;;;;5.40;3.63;;;19.00;41.40;;;;;;5031775;28;20049;-41
2022/12/15 05:51:11;;;;;;;4.35;3.80;;;18.80;36.40;;;;;;5044176;28;20395;-41
2022/12/15 05:53:39;;;;;;;4.75;3.78;;;18.80;36.40;;;;;;5051264;28;20055;-41
2022/12/15 05:56:06;;;;;;;5.10;3.70;;;18.90;36.50;;;;;;5051367;28;20052;-41
2022/12/15 05:58:33;;;;;;;4.70;3.70;;;17.80;40.30;;;;;;5051609;28;20186;-41
2022/12/15 06:01:04;;;;;;;5.03;3.70;;;18.80;36.40;;;;;;5051593;28;20055;-41
2022/12/15 06:03:31;;;;;;;8.02;3.50;;;18.80;36.30;;;;;;5051046;28;20049;-41
2022/12/15 06:05:59;;;;;;;4.60;3.47;;;18.80;36.30;;;;;;5051096;28;20071;-42
2022/12/15 06:08:27;;;;;;;4.28;3.38;;;18.80;36.30;;;;;;5051244;28;20060;-40
2022/12/15 06:10:53;;;;;;;4.57;3.53;;;18.90;36.40;;;;;;5051390;28;20055;-41
2022/12/15 06:13:20;;;;;;;4.32;3.40;;;18.90;36.40;;;;;;5051309;28;20055;-41
2022/12/15 06:15:55;;;;;;;5.03;3.80;;;18.80;36.30;;;;;;5051203;28;20045;-42
2022/12/15 06:18:21;;;;;;;4.88;3.47;;;18.90;36.40;;;;;;5051255;28;20049;-41
2022/12/15 06:20:48;;;;;;;4.15;3.30;;;18.80;41.10;;;;;;5050919;28;20049;-41
2022/12/15 06:23:15;;;;;;;3.80;3.05;;;18.80;36.40;;;;;;5052994;28;20048;-41
2022/12/15 06:25:43;;;;;;;5.57;3.85;;;18.90;36.40;;;;;;5070139;28;20412;-40
2022/12/15 06:28:09;;;;;;;3.80;3.00;;;18.80;36.40;;;;;;5054813;28;20049;-41
2022/12/15 06:30:37;;;;;;;4.82;3.70;;;18.80;36.30;;;;;;5055047;28;20049;-41
2022/12/15 06:33:04;;;;;;;4.50;3.50;;;18.90;36.40;;;;;;5054727;28;20045;-42
2022/12/15 06:35:30;;;;;;;4.22;3.63;;;18.80;36.30;;;;;;5054640;28;20040;-41
2022/12/15 06:37:57;;;;;;;6.05;3.45;;;18.90;36.40;;;;;;5054205;28;20057;-42
2022/12/15 06:40:24;;;;;;;5.78;3.50;;;18.80;36.30;;;;;;5054797;28;20494;-41
2022/12/15 06:42:52;;;;;;;4.75;3.15;;;18.80;40.50;;;;;;5054489;28;20053;-40
2022/12/15 06:45:19;;;;;;;4.35;3.38;;;18.90;36.40;;;;;;5054415;28;20136;-40
2022/12/15 06:47:45;;;;;;;4.60;3.47;;;18.90;36.40;;;;;;5054160;28;20432;-41
2022/12/15 06:50:12;;;;;;;4.28;2.95;;;18.80;36.30;;;;;;5054606;28;20131;-40
2022/12/15 06:52:39;;;;;;;4.70;3.90;;;18.90;40.90;;;;;;5054289;28;20494;-42
2022/12/15 06:55:06;;;;;;;4.40;3.53;;;18.80;40.90;;;;;;5054332;28;20053;-42
2022/12/15 06:57:33;;;;;;;4.68;3.45;;;18.80;40.70;;;;;;5054448;28;20053;-41
2022/12/15 07:00:01;;;;;;;4.35;3.33;;;18.80;36.30;;;;;;5054393;28;20057;-42
2022/12/15 07:02:28;;;;;;;5.75;3.63;;;18.90;36.40;;;;;;5053885;28;20131;-41
2022/12/15 07:04:55;;;;;;;4.53;3.58;;;18.90;40.70;;;;;;5054259;28;20107;-41
2022/12/15 07:07:22;;;;;;;4.78;3.30;;;18.90;36.40;;;;;;5054169;28;20508;-41
2022/12/15 07:09:49;;;;;;;4.32;3.22;;;18.90;36.40;;;;;;5054321;28;20049;-41
2022/12/15 07:12:15;;;;;;;4.30;3.40;;;18.70;40.60;;;;;;5053945;28;20051;-41
2022/12/15 07:14:42;;;;;;;4.72;3.30;;;18.90;36.40;;;;;;5054189;28;20049;-42
2022/12/15 07:17:10;;;;;;;5.40;3.88;;;18.90;36.30;;;;;;5053794;28;20162;-42
2022/12/15 07:19:37;;;;;;;4.55;3.38;;;18.90;36.30;;;;;;5054011;28;20098;-42
2022/12/15 07:22:05;;;;;;;6.38;3.25;;;18.90;36.30;;;;;;5053868;28;20413;-42
2022/12/15 07:24:31;;;;;;;4.47;3.25;;;18.90;36.30;;;;;;5053892;28;20151;-42
2022/12/15 07:26:58;;;;;;;3.88;3.13;;;18.90;36.30;;;;;;5053687;28;20045;-42
2022/12/15 07:29:25;;;;;;;4.35;3.40;;;18.90;36.30;;;;;;5053673;28;20053;-42
2022/12/15 07:31:51;;;;;;;6.85;3.28;;;18.90;36.30;;;;;;5053084;28;20375;-42
2022/12/15 07:34:20;;;;;;;5.40;3.50;;;18.90;36.30;;;;;;5051841;28;20090;-42
2022/12/15 07:36:46;;;;;;;4.95;3.53;;;18.90;36.30;;;;;;5044947;28;20046;-43
2022/12/15 07:39:14;;;;;;;5.25;3.38;;;18.90;36.30;;;;;;5033843;28;20050;-42
2022/12/15 07:41:41;;;;;;;4.40;3.40;;;18.90;36.40;;;;;;5033774;28;20050;-42
2022/12/15 07:44:09;;;;;;;5.28;3.70;;;18.90;36.40;;;;;;5039441;28;20055;-42
2022/12/15 07:46:35;;;;;;;3.60;2.92;;;19.00;36.50;;;;;;5053634;28;20045;-42
2022/12/15 07:49:02;;;;;;;5.72;3.30;;;19.00;36.50;;;;;;5053417;28;20127;-42
2022/12/15 07:51:30;;;;;;;5.20;3.70;;;19.00;36.50;;;;;;5051849;28;20049;-43
2022/12/15 07:53:57;;;;;;;4.20;3.22;;;19.10;37.20;;;;;;5052109;28;20513;-42
2022/12/15 07:56:24;;;;;;;4.03;3.30;;;19.10;36.60;;;;;;5052764;28;20444;-42
2022/12/15 07:58:51;;;;;;;6.95;3.55;;;19.10;36.70;;;;;;5052907;28;20056;-42
2022/12/15 08:01:17;;;;;;;5.45;3.67;;;19.20;36.70;;;;;;5053127;28;20470;-42
2022/12/15 08:03:44;;;;;;;4.55;3.13;;;19.20;36.60;;;;;;5052677;28;20139;-42
2022/12/15 08:06:12;;;;;;;7.15;3.60;;;19.20;36.60;;;;;;5052606;28;20045;-42
2022/12/15 08:08:40;;;;;;;3.67;2.90;;;19.20;36.60;;;;;;5053033;28;20045;-42
2022/12/15 08:11:07;;;;;;;4.38;3.30;;;19.30;36.60;;;;;;5052740;28;20052;-44
2022/12/15 08:13:34;;;;;;;4.07;3.45;;;19.30;36.60;;;;;;5051829;28;20132;-43
2022/12/15 08:16:01;;;;;;;3.88;3.08;;;19.30;36.60;;;;;;5052732;28;20052;-43
2022/12/15 08:18:28;;;;;;;4.90;3.70;;;19.30;36.50;;;;;;5051772;28;20055;-43
2022/12/15 08:20:55;;;;;;;5.95;3.35;;;19.40;36.50;;;;;;5052529;28;20053;-42
2022/12/15 08:23:22;;;;;;;4.13;3.35;;;19.40;36.40;;;;;;5052164;28;20049;-43
2022/12/15 08:25:50;;;;;;;3.80;3.25;;;19.40;36.30;;;;;;5052343;28;20497;-42
2022/12/15 08:28:16;;;;;;;4.90;3.65;;;19.40;36.30;;;;;;5051888;28;20429;-41
2022/12/15 08:30:43;;;;;;;4.57;3.40;;;19.40;36.20;;;;;;5052646;28;20045;-41
2022/12/15 08:33:10;;;;;;;4.55;3.20;;;19.40;36.10;;;;;;5050810;28;20072;-44
2022/12/15 08:35:38;;;;;;;3.97;3.25;;;19.50;36.10;;;;;;5052417;28;20049;-43
2022/12/15 08:38:05;;;;;;;4.50;3.58;;;19.50;36.00;;;;;;5050262;28;20045;-43
2022/12/15 08:40:32;;;;;;;4.63;3.35;;;19.50;36.00;;;;;;5050644;28;20051;-41
2022/12/15 08:43:00;;;;;;;4.45;3.25;;;19.50;36.00;;;;;;5051657;28;20051;-43
2022/12/15 08:45:27;;;;;;;4.35;3.17;;;19.50;35.90;;;;;;5050393;28;20107;-42
2022/12/15 08:47:55;;;;;;;4.72;3.30;;;19.60;36.00;;;;;;5051783;28;20047;-42
2022/12/15 08:50:22;;;;;;;6.25;3.35;;;19.60;36.00;;;;;;5051141;28;20497;-41
2022/12/15 08:52:48;;;;;;;8.13;3.45;;;19.60;36.00;;;;;;5051351;28;20067;-42
2022/12/15 08:55:15;;;;;;;4.38;3.10;;;19.60;36.00;;;;;;5045675;28;20063;-43
2022/12/15 08:57:42;;;;;;;4.53;3.50;;;19.70;36.10;;;;;;5051873;28;20041;-40
2022/12/15 09:00:12;;;;;;;3.75;3.03;;;19.60;36.10;;;;;;5051204;28;20052;-44
2022/12/15 09:02:38;;;;;;;4.63;2.80;;;19.60;40.20;;;;;;5051697;28;20119;-42
2022/12/15 09:05:06;;;;;;;4.30;3.15;;;19.70;39.20;;;;;;5050381;28;20569;-44
2022/12/15 09:07:33;;;;;;;4.75;3.38;;;19.70;36.20;;;;;;5051382;28;20506;-42
2022/12/15 09:09:59;;;;;;;3.67;3.05;;;19.70;36.20;;;;;;5051747;28;20056;-44
2022/12/15 09:12:26;;;;;;;4.93;3.25;;;19.70;36.10;;;;;;5051464;28;20059;-44
2022/12/15 09:14:53;;;;;;;4.75;3.20;;;19.70;36.10;;;;;;5051909;28;20076;-43
2022/12/15 09:17:21;;;;;;;4.25;3.00;;;19.70;36.20;;;;;;5051636;28;20041;-44
2022/12/15 09:19:47;;;;;;;4.32;3.17;;;19.80;36.20;;;;;;5051611;28;20479;-41
2022/12/15 09:22:14;;;;;;;4.72;3.22;;;19.80;36.20;;;;;;5051303;28;20057;-44
2022/12/15 09:24:41;;;;;;;3.80;3.17;;;19.80;36.20;;;;;;5051115;28;20048;-42
2022/12/15 09:27:08;;;;;;;3.80;3.10;;;19.80;36.20;;;;;;5051058;28;20037;-44
2022/12/15 09:29:35;;;;;;;4.57;3.20;;;20.00;40.30;;;;;;5051092;28;20049;-43
2022/12/15 09:32:02;;;;;;;4.25;3.10;;;19.80;36.20;;;;;;5051528;28;20094;-44
2022/12/15 09:34:30;;;;;;;5.38;3.25;;;19.80;36.20;;;;;;5051444;28;20049;-43
2022/12/15 09:36:57;;;;;;;4.45;3.42;;;19.90;36.20;;;;;;5050860;28;20041;-42
2022/12/15 09:39:23;;;;;;;4.30;2.95;;;19.90;36.10;;;;;;5051369;28;20130;-42
2022/12/15 09:41:53;;;;;;;4.10;2.90;;;19.90;36.10;;;;;;5051261;28;20141;-43
2022/12/15 09:44:20;;;;;;;4.28;3.00;;;19.90;36.10;;;;;;5050967;28;20064;-42
2022/12/15 09:47:04;;;;;;;5.85;3.50;;;19.90;36.10;;;;;;5051102;28;20045;-42
2022/12/15 09:49:49;;;;;;;4.78;3.10;;;19.90;36.10;;;;;;5051685;28;20049;-43
2022/12/15 09:52:17;;;;;;;3.53;2.83;;;19.90;36.10;;;;;;5050470;28;20572;-43
2022/12/15 09:54:45;;;;;;;4.22;2.90;;;20.00;40.70;;;;;;5031500;28;20045;-42
2022/12/15 09:57:16;;;;;;;3.38;2.90;;;19.90;36.10;;;;;;5045816;28;20179;-42
2022/12/15 09:59:51;;;;;;;4.35;2.90;;;20.00;36.20;;;;;;5052407;28;20509;-42
2022/12/15 10:02:32;;;;;;;3.97;2.90;;;20.00;36.10;;;;;;5054521;28;20513;-40
2022/12/15 10:05:05;;;;;;;4.30;3.10;;;19.80;37.70;;;;;;5054500;28;20053;-40
2022/12/15 10:07:33;;;;;;;4.22;3.08;;;20.00;36.20;;;;;;5053780;28;20179;-42
2022/12/15 10:10:04;;;;;;;5.90;3.00;;;20.00;36.20;;;;;;5051951;28;20554;-41
2022/12/15 10:12:32;;;;;;;8.43;3.15;;;20.10;36.30;;;;;;5054166;28;20584;-41
2022/12/15 10:15:08;;;;;;;5.10;3.10;;;20.00;37.80;;;;;;5054712;28;20045;-42
2022/12/15 10:17:40;;;;;;;4.28;2.78;;;20.10;36.20;;;;;;5054363;28;20060;-44
2022/12/15 10:20:16;;;;;;;4.47;2.60;;;20.10;36.30;;;;;;5053652;28;20053;-43
2022/12/15 10:22:42;;;;;;;4.03;3.00;;;20.10;36.30;;;;;;5051941;28;20413;-41
2022/12/15 10:25:14;;;;;;;4.18;3.03;;;20.20;36.30;;;;;;5054113;28;20151;-43
2022/12/15 10:28:04;;;;;;;3.88;2.97;;;20.10;36.20;;;;;;5052243;28;20041;-40
2022/12/15 10:30:30;;;;;;;3.03;2.65;;;20.20;36.30;;;;;;5050847;28;20520;-40
2022/12/15 10:33:01;;;;;;;3.65;2.78;;;20.20;36.30;;;;;;5051499;28;20049;-39
2022/12/15 10:35:30;;;;;;;3.83;2.90;;;20.20;36.30;;;;;;5053633;28;20057;-43
2022/12/15 10:37:58;;;;;;;4.25;2.95;;;20.20;36.30;;;;;;5051851;28;20047;-42
2022/12/15 10:40:44;;;;;;;3.70;2.80;;;20.00;40.70;;;;;;5052765;28;20056;-39
2022/12/15 10:43:13;;;;;;;3.58;2.90;;;20.20;36.30;;;;;;5053743;28;20045;-40
2022/12/15 10:45:40;;;;;;;3.58;2.72;;;20.20;36.30;;;;;;5053737;28;20044;-41
2022/12/15 10:48:10;;;;;;;4.15;2.67;;;20.20;36.30;;;;;;5053709;28;20082;-42
2022/12/15 10:50:38;;;;;;;3.55;2.63;;;20.20;36.20;;;;;;5054010;28;20059;-41
2022/12/15 10:53:08;;;;;;;4.05;2.92;;;20.30;36.30;;;;;;5053676;28;20448;-43
2022/12/15 10:55:37;;;;;;;4.60;2.95;;;20.30;36.30;;;;;;5053341;28;20051;-43
2022/12/15 10:58:04;;;;;;;3.65;2.80;;;20.30;36.30;;;;;;5053396;28;20041;-40
2022/12/15 11:00:32;;;;;;;3.40;2.83;;;20.30;36.30;;;;;;5052428;28;20049;-42
2022/12/15 11:02:59;;;;;;;3.70;2.90;;;20.30;36.30;;;;;;5053937;28;20516;-42
2022/12/15 11:05:26;;;;;;;3.80;3.00;;;20.30;36.30;;;;;;5054105;28;20057;-42
2022/12/15 11:07:54;;;;;;;3.95;3.00;;;20.30;36.30;;;;;;5053071;28;20127;-43
2022/12/15 11:10:22;;;;;;;5.82;2.47;;;20.40;36.30;;;;;;5052823;28;20051;-40
2022/12/15 11:12:58;;;;;;;3.80;2.70;;;20.30;36.30;;;;;;5053148;28;20490;-42
2022/12/15 11:15:40;;;;;;;3.53;2.63;;;20.40;36.30;;;;;;5053236;28;20048;-43
2022/12/15 11:18:11;;;;;;;3.20;2.50;;;20.40;36.40;;;;;;5052870;28;20049;-42
2022/12/15 11:20:39;;;;;;;3.35;2.58;;;20.40;36.30;;;;;;5053065;28;20064;-40
2022/12/15 11:23:11;;;;;;;3.22;2.63;;;20.40;36.30;;;;;;5053156;28;20098;-40
2022/12/15 11:25:39;;;;;;;3.25;2.42;;;20.40;36.30;;;;;;5049863;28;20051;-45
2022/12/15 11:28:10;;;;;;;4.13;2.80;;;22.30;37.40;;;;;;4175203;28;10000783;-38
2022/12/15 11:30:41;;;;;;;3.70;2.72;;;20.40;36.30;;;;;;4163915;28;10000824;-40
2022/12/15 11:33:08;;;;;;;3.28;2.40;;;20.40;36.40;;;;;;5052925;28;20047;-42
2022/12/15 11:35:47;;;;;;;3.92;2.67;;;20.40;37.10;;;;;;5053501;28;20051;-40
2022/12/15 11:38:18;;;;;;;3.95;2.80;;;20.50;36.60;;;;;;5053610;28;20055;-41
2022/12/15 11:40:45;;;;;;;4.32;2.92;;;20.50;36.50;;;;;;5053831;28;20049;-41
2022/12/15 11:43:40;;;;;;;4.10;2.40;;;20.50;36.60;;;;;;5051798;28;20139;-45
2022/12/15 11:46:23;;;;;;;4.30;2.95;;;20.50;36.60;;;;;;5051660;28;20053;-42
2022/12/15 11:49:08;;;;;;;5.47;2.85;;;20.50;36.60;;;;;;5050149;28;20486;-43
2022/12/15 11:51:39;;;;;;;3.75;2.80;;;20.50;36.50;;;;;;5050180;28;20131;-39
2022/12/15 11:54:13;;;;;;;5.07;2.55;;;20.40;36.30;;;;;;5052953;28;20059;-42
2022/12/15 11:56:42;;;;;;;3.83;2.50;;;20.50;36.20;;;;;;5053287;28;20049;-41
2022/12/15 11:59:29;;;;;;;4.53;2.85;;;20.50;36.20;;;;;;5052430;28;20440;-39
2022/12/15 12:02:21;;;;;;;5.72;2.58;;;20.50;36.20;;;;;;5052497;28;20071;-43
2022/12/15 12:04:54;;;;;;;4.70;2.53;;;20.10;36.50;;;;;;5049415;28;20392;-42
2022/12/15 12:07:23;;;;;;;3.75;2.80;;;20.50;36.10;;;;;;5050247;28;20049;-43
2022/12/15 12:09:59;;;;;;;3.33;2.78;;;20.40;35.90;;;;;;5052084;28;20049;-41
2022/12/15 12:12:27;;;;;;;4.68;2.97;;;20.40;35.80;;;;;;5050856;28;20052;-39
2022/12/15 12:15:01;;;;;;;3.08;2.72;;;20.60;37.70;;;;;;5051130;28;20041;-43
2022/12/15 12:17:35;;;;;;;5.07;2.63;;;20.40;35.90;;;;;;5050122;28;20059;-41
2022/12/15 12:20:04;;;;;;;4.32;2.85;;;20.40;35.80;;;;;;5051997;28;20049;-42
2022/12/15 12:22:34;;;;;;;5.30;3.08;;;20.30;35.70;;;;;;5051290;28;20053;-43
2022/12/15 12:25:03;;;;;;;4.22;2.72;;;20.40;37.60;;;;;;5050803;28;20041;-41
2022/12/15 12:27:35;;;;;;;3.38;2.60;;;20.40;39.50;;;;;;5050464;28;20049;-40
2022/12/15 12:30:04;;;;;;;3.70;2.60;;;20.30;35.90;;;;;;5050916;28;20051;-42
2022/12/15 12:32:38;;;;;;;3.80;2.50;;;20.20;35.90;;;;;;5052257;28;20056;-41
2022/12/15 12:35:07;;;;;;;4.03;2.97;;;20.10;38.00;;;;;;5051999;28;20048;-42
2022/12/15 12:37:35;;;;;;;3.88;2.40;;;20.20;35.80;;;;;;5051727;28;20444;-40
2022/12/15 12:40:07;;;;;;;4.22;2.78;;;20.20;35.80;;;;;;5035777;28;20413;-43
2022/12/15 12:42:37;;;;;;;3.92;2.70;;;20.20;35.90;;;;;;5058688;28;20481;-41
2022/12/15 12:45:04;;;;;;;5.80;2.83;;;20.10;38.70;;;;;;5052417;28;20049;-43
2022/12/15 12:47:31;;;;;;;4.35;2.60;;;20.10;35.80;;;;;;5051050;28;20390;-38
2022/12/15 12:50:00;;;;;;;3.97;2.83;;;20.00;35.70;;;;;;5051983;28;20047;-41
2022/12/15 12:52:28;;;;;;;5.22;3.35;;;20.00;35.70;;;;;;5052227;28;20391;-41
2022/12/15 12:54:59;;;;;;;5.30;2.65;;;20.00;36.00;;;;;;5051944;28;20053;-40
2022/12/15 12:57:40;;;;;;;12.18;3.15;;;19.90;36.20;;;;;;5052279;28;20049;-43
2022/12/15 13:00:15;;;;;;;4.10;2.70;;;19.90;36.50;;;;;;5051680;28;20053;-43
2022/12/15 13:03:15;;;;;;;5.45;2.35;;;19.80;36.40;;;;;;5050301;28;20045;-44
2022/12/15 13:05:41;;;;;;;2.83;2.28;;;19.80;36.50;;;;;;5050800;28;20131;-43
2022/12/15 13:08:48;;;;;;;3.78;2.63;;;19.80;36.60;;;;;;5051754;28;20049;-45
2022/12/15 13:11:57;;;;;;;5.13;2.20;;;19.70;36.60;;;;;;5051436;28;20076;-44
2022/12/15 13:14:44;;;;;;;4.97;2.40;;;19.60;36.60;;;;;;5037510;28;20051;-43
2022/12/15 13:17:24;;;;;;;3.50;2.75;;;19.60;36.70;;;;;;5050344;28;20049;-45
2022/12/15 13:20:25;;;;;;;4.20;2.75;;;19.60;36.60;;;;;;5051206;28;20048;-43
2022/12/15 13:22:52;;;;;;;4.85;3.08;;;19.50;36.50;;;;;;5040585;28;20547;-43
2022/12/15 13:25:37;;;;;;;3.45;2.55;;;19.50;36.60;;;;;;5050801;28;20045;-43
2022/12/15 13:28:23;;;;;;;3.25;2.40;;;19.10;36.80;;;;;;5050484;28;20044;-43
2022/12/15 13:31:12;;;;;;;8.30;2.63;;;19.50;36.70;;;;;;5051155;28;20416;-43
2022/12/15 13:33:44;;;;;;;5.55;2.47;;;19.40;36.80;;;;;;5050890;28;20059;-44
2022/12/15 13:36:11;;;;;;;3.67;2.55;;;19.40;36.90;;;;;;5050982;28;20051;-44
2022/12/15 13:38:51;;;;;;;4.18;2.60;;;19.40;36.90;;;;;;5051597;28;20405;-43
2022/12/15 13:41:22;;;;;;;3.33;2.35;;;19.40;37.00;;;;;;5051244;28;20045;-44
2022/12/15 13:43:49;;;;;;;3.65;2.60;;;19.40;37.10;;;;;;5049798;28;20490;-44
2022/12/15 13:46:20;;;;;;;3.78;2.30;;;19.30;37.10;;;;;;5051226;28;20053;-44
2022/12/15 13:48:47;;;;;;;3.75;2.22;;;19.30;37.30;;;;;;5050938;28;20055;-44
2022/12/15 13:51:24;;;;;;;3.67;2.90;;;19.30;37.40;;;;;;5051113;28;20498;-41
2022/12/15 14:15:12;;;;;;;4.35;2.88;;;;;;;;;;4145536;27;10000904;-74
2022/12/15 14:17:39;;;;;;;4.70;2.50;;;;;;;;;;4962003;28;20119;-75
2022/12/15 14:20:11;;;;;;;4.35;3.00;;;9.00;49.50;;;;;;5061177;28;20057;-74
2022/12/15 14:22:41;;;;;;;4.25;2.78;;;9.20;49.60;;;;;;5052017;28;20147;-73
2022/12/15 14:25:14;;;;;;;5.20;2.60;;;9.30;49.50;;;;;;5058107;28;20063;-74
2022/12/15 14:27:41;;;;;;;5.38;2.50;;;;;;;;;;5059197;28;20136;-75
2022/12/15 14:30:22;;;;;;;3.63;2.42;;;9.80;50.00;;;;;;5050713;28;20049;-74
2022/12/15 14:32:51;;;;;;;2.92;2.20;;;;;;;;;;4860839;28;96935;-74
2022/12/15 14:35:19;;;;;;;4.82;2.92;;;;;;;;;;5022137;28;20132;-76
2022/12/15 14:37:46;;;;;;;4.63;3.00;;;;;;;;;;5025749;28;20054;-74
2022/12/15 14:40:14;;;;;;;3.35;2.47;;;10.30;55.10;;;;;;5027513;28;20088;-74
2022/12/15 14:42:41;;;;;;;3.90;2.80;;;;;;;;;;5021514;28;20573;-74
2022/12/15 14:45:17;;;;;;;3.33;2.40;;;;;;;;;;5017561;28;20115;-74
2022/12/15 14:47:47;;;;;;;3.28;2.42;;;;;;;;;;5016354;28;20060;-74
2022/12/15 14:50:15;;;;;;;4.68;2.72;;;;;;;;;;5008822;28;20061;-74
2022/12/15 14:52:42;;;;;;;3.42;2.40;;;;;;;;;;5008636;28;20144;-74
2022/12/15 14:55:26;;;;;;;6.10;2.47;;;10.60;53.70;;;;;;5007287;28;20165;-74
2022/12/15 14:57:53;;;;;;;4.80;2.70;;;;;;;;;;5007450;28;20058;-72
2022/12/15 15:00:26;;;;;;;3.78;2.70;;;10.70;53.40;;;;;;5008185;28;20407;-72
2022/12/15 15:03:11;;;;;;;3.67;2.60;;;10.70;53.20;;;;;;5023157;28;20586;-71
2022/12/15 15:05:39;;;;;;;5.07;2.60;;;;;;;;;;5007336;28;20553;-73
2022/12/15 15:08:06;;;;;;;3.53;2.50;;;;;;;;;;5025756;28;20049;-72
2022/12/15 15:10:33;;;;;;;3.38;2.47;;;;;;;;;;5026638;28;20413;-73
2022/12/15 15:13:00;;;;;;;4.07;2.50;;;;;;;;;;5021673;28;20414;-73
2022/12/15 15:15:29;;;;;;;4.20;2.75;;;;;;;;;;5007109;28;20141;-75
2022/12/15 15:17:57;;;;;;;4.22;2.65;;;10.70;51.70;;;;;;5018280;28;20068;-74
2022/12/15 15:20:26;;;;;;;4.75;2.85;;;10.70;53.80;;;;;;5007462;28;20061;-74
2022/12/15 15:23:04;;;;;;;4.65;2.78;;;10.70;54.10;;;;;;5019960;28;20056;-74
2022/12/15 15:25:35;;;;;;;3.83;2.95;;;10.70;54.20;;;;;;5019354;28;20042;-75
2022/12/15 15:28:08;;;;;;;4.35;3.03;;;10.70;54.20;;;;;;5009738;28;20058;-75
2022/12/15 15:30:42;;;;;;;4.90;2.90;;;;;;;;;;4993843;28;20480;-76
2022/12/15 15:33:09;;;;;;;3.05;2.33;;;;;;;;;;5000980;28;20066;-75
2022/12/15 15:35:36;;;;;;;4.00;2.72;;;;;;;;;;4994374;28;20065;-75
2022/12/15 15:38:04;;;;;;;5.65;2.97;;;;;;;;;;5007814;28;20082;-75
2022/12/15 15:40:31;;;;;;;4.50;2.78;;;;;;;;;;5001770;28;20061;-75
2022/12/15 15:42:58;;;;;;;5.80;3.38;;;;;;;;;;5001050;28;20166;-75
2022/12/15 15:45:26;;;;;;;4.05;2.70;;;;;;;;;;5001821;28;20065;-76
2022/12/15 15:47:54;;;;;;;4.75;3.03;;;;;;;;;;4998307;28;20463;-75
2022/12/15 15:50:25;;;;;;;3.90;3.05;;;10.60;60.70;;;;;;5009371;28;20272;-74